Time;durP1;ratioP1;P1;durP2;ratioP2;P2;SDS_P1;SDS_P2;PMS_P1;PMS_P2;Temp;Humidity;BMP_temperature;BMP_pressure;BME280_temperature;BME280_humidity;BME280_pressure;Samples;Min_cycle;Max_cycle;Signal;HPM_P1;HPM_P2
2023/10/19 00:00:50;;;;;;;27.95;22.05;;;12.40;99.90;;;;;;5072306;28;20040;-51
2023/10/19 00:03:17;;;;;;;31.05;22.65;;;12.30;99.90;;;;;;5072346;28;20460;-52
2023/10/19 00:05:44;;;;;;;31.20;22.20;;;12.50;99.90;;;;;;5072148;28;20048;-54
2023/10/19 00:10:43;;;;;;;38.70;24.10;;;12.60;99.90;;;;;;5072685;28;20025;-52
2023/10/19 00:13:11;;;;;;;32.28;23.00;;;12.60;99.90;;;;;;5072149;28;20464;-51
2023/10/19 00:15:48;;;;;;;35.55;22.75;;;12.50;99.90;;;;;;5071925;28;20043;-51
2023/10/19 00:23:13;;;;;;;30.42;22.80;;;12.60;99.90;;;;;;5010069;28;20084;-53
2023/10/19 00:25:42;;;;;;;32.97;23.98;;;12.60;99.90;;;;;;4970698;28;20045;-54
2023/10/19 00:28:08;;;;;;;32.08;22.77;;;12.60;99.90;;;;;;4971091;28;20039;-51
2023/10/19 00:30:37;;;;;;;32.10;22.48;;;12.70;99.90;;;;;;4970712;28;20031;-53
2023/10/19 00:33:03;;;;;;;27.63;21.23;;;12.90;99.90;;;;;;4970877;28;20073;-53
2023/10/19 00:35:42;;;;;;;29.00;22.30;;;13.00;99.90;;;;;;4970750;28;20038;-54
2023/10/19 00:40:53;;;;;;;29.00;21.92;;;13.20;99.90;;;;;;4970810;28;20446;-54
2023/10/19 00:43:34;;;;;;;28.10;21.55;;;13.30;99.90;;;;;;4970307;28;20192;-54
2023/10/19 00:46:08;;;;;;;30.25;21.48;;;13.40;99.90;;;;;;4970811;28;20057;-53
2023/10/19 00:48:35;;;;;;;32.45;22.48;;;13.20;99.90;;;;;;4970509;28;20063;-50
2023/10/19 00:51:09;;;;;;;29.35;21.50;;;13.40;99.90;;;;;;4984201;28;20310;-51
2023/10/19 00:53:41;;;;;;;28.35;21.48;;;13.30;99.90;;;;;;5029347;28;20393;-51
2023/10/19 00:56:09;;;;;;;27.63;20.90;;;13.40;99.90;;;;;;5041103;28;20510;-54
2023/10/19 00:58:39;;;;;;;30.95;22.63;;;13.40;99.90;;;;;;5071527;28;20476;-52
2023/10/19 01:01:05;;;;;;;28.23;21.30;;;13.40;99.90;;;;;;5071486;28;20484;-51
2023/10/19 01:03:36;;;;;;;30.42;21.55;;;13.40;99.90;;;;;;5071489;28;20120;-53
2023/10/19 01:06:09;;;;;;;26.55;20.33;;;13.30;99.90;;;;;;5071878;28;20036;-51
2023/10/19 01:08:44;;;;;;;26.67;21.13;;;13.20;99.90;;;;;;5071325;28;20037;-51
2023/10/19 01:11:11;;;;;;;27.58;20.75;;;13.10;99.90;;;;;;5071653;28;20111;-50
2023/10/19 01:13:46;;;;;;;29.13;21.20;;;13.00;99.90;;;;;;5071461;28;20036;-53
2023/10/19 01:16:20;;;;;;;28.75;21.08;;;12.90;99.90;;;;;;5071547;28;20038;-53
2023/10/19 01:18:47;;;;;;;28.55;20.85;;;13.00;99.90;;;;;;5071427;28;20028;-50
2023/10/19 01:21:14;;;;;;;28.27;20.50;;;12.90;99.90;;;;;;5071225;28;20492;-51
2023/10/19 01:23:41;;;;;;;26.40;19.83;;;12.80;99.90;;;;;;5019306;28;20117;-53
2023/10/19 01:26:10;;;;;;;28.08;20.08;;;12.80;99.90;;;;;;5071638;28;20089;-51
2023/10/19 01:28:58;;;;;;;25.95;19.63;;;12.70;99.90;;;;;;5071240;28;20028;-51
2023/10/19 01:34:06;;;;;;;27.40;19.02;;;13.10;99.90;;;;;;5071802;28;20090;-52
2023/10/19 01:36:44;;;;;;;25.90;18.77;;;13.20;99.90;;;;;;5071561;28;20040;-51
2023/10/19 01:39:11;;;;;;;25.83;18.98;;;13.50;99.90;;;;;;5022630;28;20492;-53
2023/10/19 01:41:37;;;;;;;27.42;19.95;;;13.50;99.90;;;;;;5071000;28;20040;-51
2023/10/19 01:44:06;;;;;;;26.33;18.95;;;13.30;99.90;;;;;;5035767;28;20060;-51
2023/10/19 01:46:35;;;;;;;29.00;19.42;;;13.40;99.90;;;;;;5036571;28;20040;-54
2023/10/19 01:49:02;;;;;;;26.73;18.67;;;13.60;99.90;;;;;;5071199;28;20060;-51
2023/10/19 01:51:33;;;;;;;25.40;20.15;;;13.60;99.90;;;;;;5071245;28;20059;-50
2023/10/19 01:54:02;;;;;;;26.30;18.45;;;13.60;99.90;;;;;;5065753;28;20036;-50
2023/10/19 01:56:29;;;;;;;27.70;20.10;;;13.60;99.90;;;;;;5073873;28;20021;-52
2023/10/19 01:58:55;;;;;;;25.65;19.13;;;13.40;99.90;;;;;;5022937;28;20078;-54
2023/10/19 02:03:55;;;;;;;;;;;13.30;99.90;;;;;;5075026;28;20032;-52
2023/10/19 02:06:22;;;;;;;25.30;18.88;;;13.20;99.90;;;;;;5074826;28;19908;-51
2023/10/19 02:09:25;;;;;;;27.67;20.40;;;13.10;99.90;;;;;;5074528;28;20041;-52
2023/10/19 02:11:53;;;;;;;37.97;31.70;;;13.30;99.90;;;;;;5074276;28;20093;-53
2023/10/19 02:14:19;;;;;;;44.40;36.72;;;;;;;;;;5074291;28;20499;-54
2023/10/19 02:16:47;;;;;;;33.05;25.13;;;13.60;99.90;;;;;;5074563;28;20029;-52
2023/10/19 02:19:14;;;;;;;32.03;22.35;;;13.50;99.90;;;;;;5074289;28;20020;-53
2023/10/19 02:21:40;;;;;;;29.52;22.83;;;13.50;99.90;;;;;;5074187;28;20478;-53
2023/10/19 02:24:14;;;;;;;31.83;25.90;;;13.70;99.90;;;;;;5074240;28;20033;-54
2023/10/19 02:26:41;;;;;;;33.90;26.45;;;13.70;99.90;;;;;;5074166;28;20025;-50
2023/10/19 02:29:07;;;;;;;34.65;27.30;;;13.80;99.90;;;;;;5074393;28;20021;-53
2023/10/19 02:31:37;;;;;;;35.83;26.77;;;13.90;99.90;;;;;;5056183;28;20379;-51
2023/10/19 02:34:04;;;;;;;38.03;29.08;;;13.90;99.90;;;;;;5073928;28;20107;-51
2023/10/19 02:36:31;;;;;;;34.72;28.13;;;13.90;99.90;;;;;;5073905;28;20103;-52
2023/10/19 02:39:04;;;;;;;42.25;32.60;;;13.80;99.90;;;;;;5070060;28;20411;-50
2023/10/19 02:41:30;;;;;;;41.40;32.17;;;13.90;99.90;;;;;;5053930;28;20072;-51
2023/10/19 02:46:41;;;;;;;37.10;26.27;;;13.60;99.90;;;;;;5054084;28;20604;-52
2023/10/19 02:49:11;;;;;;;31.80;24.13;;;13.20;99.90;;;;;;5053537;28;20057;-51
2023/10/19 02:51:45;;;;;;;33.05;24.17;;;13.40;99.90;;;;;;5051324;28;20220;-50
2023/10/19 02:54:19;;;;;;;32.45;24.95;;;13.50;99.90;;;;;;5053584;28;20479;-52
2023/10/19 02:56:49;;;;;;;31.33;23.45;;;13.50;99.90;;;;;;5053653;28;20024;-49
2023/10/19 02:59:16;;;;;;;30.85;22.77;;;13.40;99.90;;;;;;5053547;28;20044;-51
2023/10/19 03:01:46;;;;;;;32.20;22.02;;;13.40;99.90;;;;;;5053616;28;20069;-51
2023/10/19 03:04:12;;;;;;;28.73;21.02;;;13.50;99.90;;;;;;5053518;28;20455;-50
2023/10/19 03:06:40;;;;;;;26.38;21.13;;;13.60;99.90;;;;;;5017873;28;20628;-51
2023/10/19 03:09:13;;;;;;;31.48;21.98;;;13.60;99.90;;;;;;5053243;28;20036;-50
2023/10/19 03:11:43;;;;;;;31.88;20.98;;;13.40;99.90;;;;;;5053585;28;20499;-50
2023/10/19 03:14:13;;;;;;;27.20;20.70;;;13.30;99.90;;;;;;5053336;28;20029;-52
2023/10/19 03:16:42;;;;;;;28.33;19.85;;;13.50;99.90;;;;;;5053428;28;20029;-50
2023/10/19 03:19:08;;;;;;;26.48;20.33;;;13.60;99.90;;;;;;5018597;28;20036;-50
2023/10/19 03:21:42;;;;;;;28.48;21.08;;;13.60;99.90;;;;;;5052367;28;20041;-52
2023/10/19 03:26:59;;;;;;;28.02;20.20;;;13.60;99.90;;;;;;5045073;28;20047;-49
2023/10/19 03:29:31;;;;;;;27.27;20.83;;;13.30;99.90;;;;;;5052976;28;20400;-52
2023/10/19 03:32:01;;;;;;;31.88;21.02;;;13.30;99.90;;;;;;5053004;28;20029;-51
2023/10/19 03:34:27;;;;;;;28.75;21.70;;;13.20;99.90;;;;;;5052851;28;20033;-51
2023/10/19 03:36:54;;;;;;;29.90;20.67;;;13.20;99.90;;;;;;5053204;28;20031;-50
2023/10/19 03:39:21;;;;;;;27.50;21.70;;;13.00;99.90;;;;;;5052970;28;20032;-51
2023/10/19 03:41:49;;;;;;;25.55;20.70;;;13.00;99.90;;;;;;5034717;28;20051;-50
2023/10/19 03:44:24;;;;;;;28.25;21.05;;;13.00;99.90;;;;;;5052557;28;20499;-52
2023/10/19 03:46:55;;;;;;;27.80;21.15;;;13.20;99.90;;;;;;5052829;28;20517;-50
2023/10/19 03:49:22;;;;;;;26.08;20.73;;;13.10;99.90;;;;;;5052371;28;20091;-52
2023/10/19 03:54:33;;;;;;;27.20;20.17;;;13.30;99.90;;;;;;5052767;28;20392;-52
2023/10/19 03:57:03;;;;;;;27.90;20.63;;;13.30;99.90;;;;;;4968268;28;20405;-51
2023/10/19 03:59:33;;;;;;;24.13;18.40;;;13.30;99.90;;;;;;5052518;28;20108;-51
2023/10/19 04:02:00;;;;;;;25.23;19.48;;;13.10;99.90;;;;;;5052388;28;20129;-52
2023/10/19 04:04:29;;;;;;;26.58;19.55;;;12.90;99.90;;;;;;5052309;28;20029;-52
2023/10/19 04:06:58;;;;;;;27.40;20.20;;;13.00;99.90;;;;;;5051570;28;20037;-50
2023/10/19 04:09:29;;;;;;;25.42;19.58;;;13.10;99.90;;;;;;5052607;28;20449;-52
2023/10/19 04:11:57;;;;;;;27.15;19.67;;;13.10;99.90;;;;;;4990507;28;20414;-50
2023/10/19 04:14:23;;;;;;;25.08;19.48;;;13.10;99.90;;;;;;4990509;28;20550;-50
2023/10/19 04:16:49;;;;;;;26.30;20.52;;;13.00;99.90;;;;;;4990616;28;20073;-51
2023/10/19 04:19:18;;;;;;;26.10;19.55;;;12.90;99.90;;;;;;4989745;28;20038;-50
2023/10/19 04:21:46;;;;;;;28.65;21.45;;;12.90;99.90;;;;;;4990288;28;20042;-50
2023/10/19 04:24:13;;;;;;;29.25;21.85;;;12.80;99.90;;;;;;4990488;28;20056;-53
2023/10/19 04:26:39;;;;;;;25.08;19.45;;;13.10;99.90;;;;;;4990259;28;20101;-53
2023/10/19 04:29:13;;;;;;;21.45;16.83;;;13.00;99.90;;;;;;4997811;28;20109;-52
2023/10/19 04:31:54;;;;;;;21.20;17.77;;;12.90;99.90;;;;;;5005592;28;20061;-53
2023/10/19 04:34:21;;;;;;;25.02;17.48;;;13.00;99.90;;;;;;4970877;28;20039;-52
2023/10/19 04:36:50;;;;;;;21.85;17.33;;;13.10;99.90;;;;;;4970761;28;20061;-53
2023/10/19 04:39:19;;;;;;;25.05;18.38;;;13.00;99.90;;;;;;4970832;28;20114;-53
2023/10/19 04:41:45;;;;;;;23.85;17.25;;;12.90;99.90;;;;;;4995140;28;20065;-53
2023/10/19 04:44:11;;;;;;;22.52;15.73;;;12.80;99.90;;;;;;5071918;28;20032;-53
2023/10/19 04:46:37;;;;;;;21.17;16.52;;;12.60;99.90;;;;;;5071728;28;20038;-51
2023/10/19 04:49:03;;;;;;;21.40;16.75;;;12.50;99.90;;;;;;5019710;28;20063;-51
2023/10/19 04:51:30;;;;;;;22.13;17.40;;;12.70;99.90;;;;;;5072167;28;20480;-51
2023/10/19 04:53:55;;;;;;;22.88;15.98;;;12.90;99.90;;;;;;5036190;28;20037;-51
2023/10/19 04:56:21;;;;;;;23.50;15.85;;;12.70;99.90;;;;;;5060869;28;20032;-51
2023/10/19 04:58:47;;;;;;;19.67;16.48;;;12.60;99.90;;;;;;5062016;28;20024;-51
2023/10/19 05:01:14;;;;;;;21.55;16.70;;;12.70;99.90;;;;;;5061396;28;20380;-50
2023/10/19 05:03:41;;;;;;;24.63;17.05;;;12.90;99.90;;;;;;5061602;28;20036;-52
2023/10/19 05:06:07;;;;;;;22.55;16.42;;;13.00;99.90;;;;;;5024510;28;20037;-51
2023/10/19 05:08:36;;;;;;;21.02;15.68;;;13.10;99.90;;;;;;5061472;28;20036;-53
2023/10/19 05:11:03;;;;;;;19.27;14.45;;;13.30;99.90;;;;;;5056057;28;20060;-50
2023/10/19 05:13:31;;;;;;;19.08;13.98;;;12.90;99.90;;;;;;5066964;28;20040;-52
2023/10/19 05:15:58;;;;;;;19.30;14.30;;;12.80;99.90;;;;;;5051555;28;20613;-51
2023/10/19 05:18:25;;;;;;;17.42;14.15;;;12.90;99.90;;;;;;5051604;28;20029;-51
2023/10/19 05:20:55;;;;;;;18.10;14.48;;;12.90;99.90;;;;;;5049296;28;20057;-50
2023/10/19 05:23:26;;;;;;;19.48;15.00;;;13.10;99.90;;;;;;5051619;28;20730;-52
2023/10/19 05:25:59;;;;;;;22.73;17.23;;;13.10;99.90;;;;;;5051332;28;20024;-52
2023/10/19 05:28:25;;;;;;;19.55;15.05;;;13.20;99.90;;;;;;5049143;28;20029;-52
2023/10/19 05:30:51;;;;;;;21.48;16.20;;;13.10;99.90;;;;;;5055002;28;20074;-50
2023/10/19 05:33:20;;;;;;;17.90;13.98;;;13.10;99.90;;;;;;5061512;28;20075;-53
2023/10/19 05:35:50;;;;;;;18.55;14.25;;;13.10;99.90;;;;;;5075102;28;20043;-54
2023/10/19 05:38:19;;;;;;;18.75;15.63;;;13.30;99.90;;;;;;5074963;28;20020;-52
2023/10/19 05:40:45;;;;;;;18.33;13.68;;;13.00;99.90;;;;;;5057149;28;20044;-52
2023/10/19 05:43:11;;;;;;;21.10;15.10;;;13.10;99.90;;;;;;5054834;28;20029;-53
2023/10/19 05:45:38;;;;;;;19.52;15.57;;;12.80;99.90;;;;;;5068265;28;20035;-53
2023/10/19 05:48:06;;;;;;;19.77;13.90;;;12.90;99.90;;;;;;5074724;28;20194;-53
2023/10/19 05:50:35;;;;;;;19.50;12.40;;;12.70;99.90;;;;;;5039907;28;20043;-52
2023/10/19 05:53:03;;;;;;;18.88;13.95;;;12.60;99.90;;;;;;5072438;28;20115;-54
2023/10/19 05:55:29;;;;;;;17.88;14.05;;;12.60;99.90;;;;;;4992788;28;20038;-54
2023/10/19 05:57:55;;;;;;;19.05;15.60;;;12.80;99.90;;;;;;4993203;28;20505;-51
2023/10/19 06:00:21;;;;;;;17.02;12.38;;;12.80;99.90;;;;;;4992308;28;20121;-54
2023/10/19 06:02:51;;;;;;;21.63;14.32;;;12.70;99.90;;;;;;4992437;28;20553;-52
2023/10/19 06:05:18;;;;;;;17.00;14.45;;;12.70;99.90;;;;;;4992084;28;20045;-52
2023/10/19 06:07:49;;;;;;;18.75;14.38;;;12.60;99.90;;;;;;4991932;28;20120;-53
2023/10/19 06:10:17;;;;;;;17.17;14.00;;;12.80;99.90;;;;;;4951451;28;20049;-53
2023/10/19 06:12:50;;;;;;;19.42;13.48;;;12.90;99.90;;;;;;4982348;28;20395;-52
2023/10/19 06:15:24;;;;;;;22.55;13.52;;;12.90;99.90;;;;;;4982362;28;20062;-54
2023/10/19 06:17:50;;;;;;;19.85;14.10;;;13.00;99.90;;;;;;4984218;28;20034;-54
2023/10/19 06:20:23;;;;;;;21.27;14.23;;;13.10;99.90;;;;;;4956915;28;20415;-53
2023/10/19 06:22:56;;;;;;;18.40;13.95;;;13.30;99.90;;;;;;4984949;28;20034;-54
2023/10/19 06:25:24;;;;;;;20.95;13.82;;;13.20;99.90;;;;;;4984120;28;20067;-54
2023/10/19 06:27:51;;;;;;;20.83;14.20;;;13.20;99.90;;;;;;5054203;28;20033;-54
2023/10/19 06:30:18;;;;;;;23.80;16.88;;;13.20;99.90;;;;;;5049828;28;20112;-53
2023/10/19 06:33:01;;;;;;;26.70;16.15;;;13.50;99.90;;;;;;5053956;28;20025;-54
2023/10/19 06:35:30;;;;;;;23.02;15.77;;;14.70;99.90;;;;;;5051376;28;20064;-54
2023/10/19 06:37:55;;;;;;;17.25;13.40;;;16.10;99.90;;;;;;5054218;28;20028;-52
2023/10/19 06:40:22;;;;;;;19.10;12.57;;;17.80;99.90;;;;;;5053607;28;20064;-52
2023/10/19 06:42:51;;;;;;;19.52;13.82;;;16.60;99.90;;;;;;5052452;28;20107;-53
2023/10/19 06:45:18;;;;;;;17.30;12.05;;;16.30;99.90;;;;;;5025427;28;20110;-52
2023/10/19 06:47:49;;;;;;;19.92;14.80;;;16.10;99.90;;;;;;5055367;28;20033;-52
2023/10/19 06:50:17;;;;;;;24.27;14.32;;;15.60;99.90;;;;;;5059290;28;20036;-51
2023/10/19 06:52:46;;;;;;;23.52;17.27;;;15.10;99.90;;;;;;5058120;28;20037;-54
2023/10/19 06:55:22;;;;;;;16.58;13.40;;;15.60;99.90;;;;;;5062181;28;20035;-51
2023/10/19 06:57:55;;;;;;;19.15;13.05;;;16.70;99.90;;;;;;5061381;28;20028;-54
2023/10/19 07:00:22;;;;;;;18.98;13.10;;;18.80;99.90;;;;;;5058791;28;20036;-52
2023/10/19 07:02:50;;;;;;;13.95;9.85;;;;;;;;;;5058696;28;20033;-54
2023/10/19 07:05:29;;;;;;;17.17;12.00;;;;;;;;;;5053733;28;20033;-49
2023/10/19 07:07:56;;;;;;;19.20;12.95;;;;;;;;;;5029197;28;20484;-51
2023/10/19 07:10:23;;;;;;;15.40;10.60;;;;;;;;;;5073427;28;20490;-52
2023/10/19 07:12:51;;;;;;;16.80;11.50;;;;;;;;;;5061802;28;20356;-52
2023/10/19 07:15:22;;;;;;;15.32;12.35;;;;;;;;;;5062456;28;20782;-53
2023/10/19 07:17:48;;;;;;;11.75;9.32;;;;;;;;;;5061106;28;20373;-50
2023/10/19 07:23:24;;;;;;;11.27;10.07;;;24.20;99.90;;;;;;5061767;28;20139;-50
2023/10/19 07:25:54;;;;;;;16.15;11.55;;;;;;;;;;5062837;28;20036;-51
2023/10/19 07:28:20;;;;;;;12.23;9.50;;;25.10;99.90;;;;;;5050026;28;20028;-50
2023/10/19 07:30:46;;;;;;;13.70;9.70;;;24.30;99.90;;;;;;5017890;28;20016;-50
2023/10/19 07:33:19;;;;;;;11.10;8.10;;;;;;;;;;5045100;28;20036;-51
2023/10/19 07:35:52;;;;;;;10.95;8.68;;;;;;;;;;5044314;28;20025;-51
2023/10/19 07:38:20;;;;;;;12.50;9.25;;;25.30;99.90;;;;;;5043604;28;20029;-51
2023/10/19 07:40:46;;;;;;;12.35;9.45;;;25.00;99.90;;;;;;5054266;28;20119;-51
2023/10/19 07:43:12;;;;;;;14.25;9.43;;;;;;;;;;5031793;28;20124;-51
2023/10/19 07:45:39;;;;;;;10.60;8.90;;;;;;;;;;5056702;28;20036;-52
2023/10/19 07:48:10;;;;;;;14.38;12.25;;;;;;;;;;5045922;28;20049;-51
2023/10/19 07:50:37;;;;;;;12.60;10.25;;;27.00;99.90;;;;;;5054929;28;20506;-51
2023/10/19 07:53:04;;;;;;;10.82;9.63;;;26.10;99.90;;;;;;5071590;28;20033;-51
2023/10/19 07:55:33;;;;;;;11.18;9.02;;;26.30;99.90;;;;;;5072742;28;20170;-51
2023/10/19 07:58:06;;;;;;;10.43;8.05;;;26.30;99.90;;;;;;5052220;28;20086;-51
2023/10/19 08:00:35;;;;;;;9.65;7.88;;;27.70;99.90;;;;;;5067033;28;20040;-51
2023/10/19 08:03:02;;;;;;;13.07;8.10;;;27.30;99.60;;;;;;5036934;28;20393;-51
2023/10/19 08:05:28;;;;;;;11.20;9.00;;;;;;;;;;5072152;28;20508;-51
2023/10/19 08:07:57;;;;;;;14.25;13.05;;;;;;;;;;5036905;28;20037;-51
2023/10/19 08:10:22;;;;;;;14.98;10.88;;;28.00;98.30;;;;;;5072107;28;20527;-51
2023/10/19 08:12:51;;;;;;;11.10;9.07;;;;;;;;;;5036551;28;20033;-51
2023/10/19 08:15:18;;;;;;;10.35;9.18;;;;;;;;;;5072618;28;20085;-51
2023/10/19 08:17:48;;;;;;;10.57;6.15;;;;;;;;;;5072042;28;20094;-51
2023/10/19 08:20:23;;;;;;;11.60;7.78;;;26.50;98.00;;;;;;5068255;28;20024;-51
2023/10/19 08:22:53;;;;;;;10.32;8.10;;;25.70;99.00;;;;;;5050961;28;20028;-51
2023/10/19 08:25:20;;;;;;;11.95;7.50;;;26.00;99.20;;;;;;4999682;28;20044;-51
2023/10/19 08:27:50;;;;;;;8.73;7.43;;;25.10;99.50;;;;;;4967384;28;20506;-51
2023/10/19 08:30:18;;;;;;;11.05;7.35;;;25.40;99.90;;;;;;4996000;28;20054;-51
2023/10/19 08:32:47;;;;;;;10.40;7.07;;;;;;;;;;4999250;28;20112;-51
2023/10/19 08:35:20;;;;;;;8.40;6.80;;;;;;;;;;4957610;28;20046;-51
2023/10/19 08:37:46;;;;;;;9.15;7.32;;;27.50;99.90;;;;;;4998437;28;20027;-51
2023/10/19 08:40:17;;;;;;;11.57;7.20;;;;;;;;;;4989299;28;20049;-51
2023/10/19 08:42:48;;;;;;;9.48;6.85;;;28.90;98.70;;;;;;4996688;28;20069;-51
2023/10/19 08:45:16;;;;;;;9.85;6.90;;;28.40;97.60;;;;;;4993273;28;20162;-51
2023/10/19 08:48:02;;;;;;;9.32;6.80;;;28.30;96.90;;;;;;4989831;28;20050;-52
2023/10/19 08:50:34;;;;;;;8.75;6.93;;;28.10;97.10;;;;;;4955372;28;20038;-52
2023/10/19 08:56:47;;;;;;;14.57;6.45;;;28.10;96.00;;;;;;5022526;28;20460;-51
2023/10/19 09:02:16;;;;;;;9.32;5.82;;;27.70;96.10;;;;;;5053240;28;20012;-51
2023/10/19 09:07:55;;;;;;;6.53;3.55;;;;;;;;;;5056798;28;20462;-51
2023/10/19 09:10:22;;;;;;;9.57;5.30;;;;;;;;;;5054477;28;20033;-53
2023/10/19 09:13:09;;;;;;;9.23;5.78;;;;;;;;;;5013782;28;20041;-50
2023/10/19 09:15:36;;;;;;;7.60;4.80;;;;;;;;;;5053287;28;20516;-52
2023/10/19 09:18:28;;;;;;;8.32;5.50;;;22.60;99.90;;;;;;5064148;28;20436;-52
2023/10/19 09:20:56;;;;;;;10.98;6.38;;;22.50;99.90;;;;;;5048923;28;20041;-52
2023/10/19 09:23:29;;;;;;;8.68;4.65;;;22.60;99.90;;;;;;5055314;28;20041;-52
2023/10/19 09:25:58;;;;;;;9.70;6.60;;;22.60;99.90;;;;;;5051327;28;20024;-52
2023/10/19 09:28:24;;;;;;;10.27;6.53;;;23.50;99.90;;;;;;5002987;28;20112;-51
2023/10/19 09:30:51;;;;;;;5.85;4.63;;;24.50;99.90;;;;;;5054388;28;20029;-55
2023/10/19 09:33:18;;;;;;;10.73;5.32;;;;;;;;;;5012197;28;20504;-51
2023/10/19 09:35:52;;;;;;;9.27;5.47;;;26.40;98.60;;;;;;5012737;28;20034;-52
2023/10/19 09:38:21;;;;;;;7.57;5.22;;;26.70;97.50;;;;;;5010931;28;20038;-52
2023/10/19 09:40:53;;;;;;;7.70;4.35;;;27.40;99.90;;;;;;5011973;28;20092;-52
2023/10/19 09:44:00;;;;;;;7.28;5.32;;;26.50;96.10;;;;;;5012271;28;20100;-52
2023/10/19 09:46:36;;;;;;;9.88;6.13;;;26.40;96.80;;;;;;5004886;28;20045;-52
2023/10/19 09:49:02;;;;;;;12.85;7.63;;;26.40;96.80;;;;;;5017439;28;20136;-53
2023/10/19 09:51:29;;;;;;;9.38;5.15;;;26.00;96.90;;;;;;5032560;28;20454;-52
2023/10/19 09:54:30;;;;;;;13.50;6.57;;;25.00;97.10;;;;;;5032248;28;20040;-51
2023/10/19 09:57:11;;;;;;;65.18;30.15;;;24.90;97.70;;;;;;5031539;28;20037;-51
2023/10/19 09:59:40;;;;;;;9.15;5.05;;;24.00;98.10;;;;;;5024219;28;20048;-51
2023/10/19 10:02:09;;;;;;;8.15;5.35;;;23.60;98.60;;;;;;5022642;28;20453;-51
2023/10/19 10:04:35;;;;;;;8.65;4.50;;;23.60;99.00;;;;;;5013807;28;20125;-51
2023/10/19 10:07:01;;;;;;;15.65;7.10;;;23.30;99.00;;;;;;5015001;28;20036;-51
2023/10/19 10:09:29;;;;;;;15.00;7.40;;;;;;;;;;4999219;28;20038;-52
2023/10/19 10:11:56;;;;;;;20.45;9.20;;;;;;;;;;5034577;28;20033;-52
2023/10/19 10:14:28;;;;;;;14.55;8.80;;;;;;;;;;5034449;28;20092;-51
2023/10/19 10:17:04;;;;;;;41.15;19.38;;;23.10;99.30;;;;;;5032858;28;20034;-52
2023/10/19 10:19:31;;;;;;;8.77;3.97;;;;;;;;;;5034392;28;20029;-52
2023/10/19 10:22:20;;;;;;;15.27;6.43;;;22.90;99.90;;;;;;5034271;28;20092;-52
2023/10/19 10:24:46;;;;;;;17.80;9.95;;;22.90;99.90;;;;;;5034150;28;20034;-52
2023/10/19 10:27:19;;;;;;;13.32;8.30;;;23.10;99.90;;;;;;5015509;28;20069;-51
2023/10/19 10:30:05;;;;;;;8.05;5.03;;;23.60;99.90;;;;;;5034128;28;20035;-51
2023/10/19 10:32:53;;;;;;;21.73;11.63;;;24.70;99.30;;;;;;4989245;28;20047;-51
2023/10/19 10:35:37;;;;;;;15.18;7.60;;;24.30;98.80;;;;;;5033464;28;20116;-52
2023/10/19 10:38:08;;;;;;;24.42;9.85;;;23.80;99.10;;;;;;5045275;28;20155;-52
2023/10/19 10:40:50;;;;;;;12.65;7.80;;;23.60;99.30;;;;;;5053077;28;20540;-52
2023/10/19 10:43:17;;;;;;;9.00;6.53;;;23.20;99.90;;;;;;5053526;28;20084;-52
2023/10/19 10:45:43;;;;;;;10.43;4.60;;;23.10;99.70;;;;;;5053816;28;20041;-52
2023/10/19 10:48:16;;;;;;;10.48;6.20;;;;;;;;;;5058252;28;20178;-51
2023/10/19 10:50:42;;;;;;;18.10;10.82;;;22.90;99.90;;;;;;5038247;28;20048;-52
2023/10/19 10:53:12;;;;;;;23.85;11.20;;;22.80;99.90;;;;;;5073674;28;20598;-52
2023/10/19 10:55:39;;;;;;;14.32;8.43;;;22.80;99.90;;;;;;5073619;28;20033;-52
2023/10/19 10:58:05;;;;;;;14.70;8.95;;;22.90;99.90;;;;;;5073803;28;20051;-52
2023/10/19 11:00:34;;;;;;;8.65;5.60;;;22.90;99.90;;;;;;5073419;28;20090;-52
2023/10/19 11:03:07;;;;;;;10.80;6.28;;;23.10;99.90;;;;;;5064467;28;20033;-52
2023/10/19 11:05:35;;;;;;;8.18;4.53;;;23.80;99.90;;;;;;4991586;28;20482;-52
2023/10/19 11:08:07;;;;;;;9.38;5.78;;;24.70;99.90;;;;;;4991782;28;20121;-52
2023/10/19 11:10:33;;;;;;;7.30;4.28;;;;;;;;;;4991774;28;20046;-52
2023/10/19 11:13:03;;;;;;;7.68;5.22;;;;;;;;;;4988167;28;20027;-52
2023/10/19 11:15:29;;;;;;;7.50;4.40;;;27.00;99.40;;;;;;4972247;28;20066;-52
2023/10/19 11:17:55;;;;;;;10.88;4.60;;;;;;;;;;4972217;28;20039;-52
2023/10/19 11:20:23;;;;;;;7.50;4.30;;;27.60;96.90;;;;;;4971900;28;20043;-52
2023/10/19 11:22:50;;;;;;;4.47;3.33;;;28.10;97.10;;;;;;4991518;28;20106;-52
2023/10/19 11:25:29;;;;;;;5.18;3.65;;;27.80;96.80;;;;;;4991440;28;20498;-52
2023/10/19 11:27:56;;;;;;;6.95;4.47;;;27.50;97.10;;;;;;4991179;28;20035;-52
2023/10/19 11:30:27;;;;;;;6.57;3.30;;;27.30;98.50;;;;;;4974999;28;20033;-52
2023/10/19 11:32:57;;;;;;;6.00;4.18;;;27.00;97.60;;;;;;4990868;28;20085;-52
2023/10/19 11:35:24;;;;;;;7.70;4.18;;;26.50;97.10;;;;;;4992850;28;20133;-51
2023/10/19 11:37:52;;;;;;;6.47;3.85;;;26.20;97.40;;;;;;5033171;28;20029;-52
2023/10/19 11:40:20;;;;;;;7.78;4.18;;;25.70;97.30;;;;;;5033611;28;20116;-54
2023/10/19 11:42:45;;;;;;;4.85;3.40;;;25.50;97.70;;;;;;5019913;28;20079;-51
2023/10/19 11:45:12;;;;;;;8.30;4.70;;;25.20;97.90;;;;;;5052618;28;20063;-51
2023/10/19 11:47:38;;;;;;;7.85;4.10;;;25.20;98.00;;;;;;5052361;28;20029;-52
2023/10/19 11:50:05;;;;;;;5.05;3.80;;;25.00;97.90;;;;;;5052932;28;20033;-52
2023/10/19 11:52:31;;;;;;;7.95;5.38;;;24.90;97.90;;;;;;5056756;28;20037;-52
2023/10/19 11:54:57;;;;;;;7.60;4.88;;;25.00;98.20;;;;;;5052627;28;20052;-51
2023/10/19 11:57:26;;;;;;;9.25;3.90;;;25.00;98.10;;;;;;5000804;28;20069;-52
2023/10/19 11:59:54;;;;;;;5.47;4.03;;;25.00;98.10;;;;;;5054475;28;20039;-52
2023/10/19 12:02:20;;;;;;;10.57;6.72;;;24.90;98.30;;;;;;5052512;28;20037;-52
2023/10/19 12:04:46;;;;;;;9.15;5.97;;;24.90;98.70;;;;;;5052402;28;20036;-52
2023/10/19 12:07:12;;;;;;;139.10;89.82;;;25.00;99.00;;;;;;5050125;28;20456;-51
2023/10/19 12:09:41;;;;;;;25.08;18.38;;;24.80;98.50;;;;;;5045321;28;20028;-51
2023/10/19 12:12:08;;;;;;;35.15;26.30;;;24.80;98.60;;;;;;5048457;28;20033;-52
2023/10/19 12:14:36;;;;;;;31.08;23.48;;;24.80;99.00;;;;;;5053814;28;20036;-53
2023/10/19 12:17:02;;;;;;;31.80;23.17;;;24.80;99.90;;;;;;5049187;28;20055;-52
2023/10/19 12:19:30;;;;;;;23.42;19.70;;;24.80;99.90;;;;;;5049267;28;20029;-49
2023/10/19 12:21:56;;;;;;;14.45;8.93;;;24.70;99.90;;;;;;5057281;28;20082;-51
2023/10/19 12:24:23;;;;;;;14.85;12.18;;;24.80;99.90;;;;;;4995173;28;20049;-50
2023/10/19 12:26:49;;;;;;;30.58;23.55;;;24.90;99.90;;;;;;5010661;28;20040;-52
2023/10/19 12:29:17;;;;;;;39.00;18.05;;;;;;;;;;5046510;28;20625;-50
2023/10/19 12:31:43;;;;;;;29.73;19.35;;;25.30;99.90;;;;;;5044894;28;20029;-50
2023/10/19 12:34:11;;;;;;;8.13;5.72;;;25.70;99.90;;;;;;5048039;28;20381;-49
2023/10/19 12:36:37;;;;;;;11.63;6.22;;;25.80;99.70;;;;;;5051891;28;20532;-50
2023/10/19 12:39:06;;;;;;;7.65;5.20;;;26.10;99.80;;;;;;4973870;28;20535;-51
2023/10/19 12:41:32;;;;;;;10.27;6.72;;;;;;;;;;4999336;28;20127;-51
2023/10/19 12:44:02;;;;;;;8.50;4.82;;;;;;;;;;5050720;28;20024;-51
2023/10/19 12:46:29;;;;;;;13.07;7.97;;;26.60;97.90;;;;;;5048653;28;20033;-51
2023/10/19 12:48:58;;;;;;;9.88;6.07;;;26.60;98.10;;;;;;5049804;28;20078;-51
2023/10/19 12:51:25;;;;;;;10.52;6.68;;;26.40;97.90;;;;;;4997697;28;20040;-52
2023/10/19 12:53:54;;;;;;;14.02;9.38;;;26.30;98.00;;;;;;5050045;28;20388;-51
2023/10/19 12:56:24;;;;;;;17.20;10.55;;;26.00;98.20;;;;;;5050452;28;20657;-52
2023/10/19 12:58:50;;;;;;;17.25;10.35;;;25.80;98.40;;;;;;5050543;28;20037;-52
2023/10/19 13:01:17;;;;;;;24.38;15.52;;;25.80;98.40;;;;;;5050353;28;20055;-52
2023/10/19 13:03:45;;;;;;;13.05;8.52;;;26.00;99.00;;;;;;5048463;28;20115;-51
2023/10/19 13:06:12;;;;;;;15.63;9.10;;;26.00;98.70;;;;;;5050467;28;20057;-52
2023/10/19 13:08:40;;;;;;;26.27;18.15;;;26.00;98.40;;;;;;5050150;28;20104;-52
2023/10/19 13:11:07;;;;;;;11.02;6.03;;;25.80;98.20;;;;;;5050400;28;20604;-52
2023/10/19 13:13:36;;;;;;;10.73;6.22;;;25.90;98.00;;;;;;5050036;28;20079;-51
2023/10/19 13:16:09;;;;;;;11.80;7.55;;;26.10;98.00;;;;;;5050379;28;20068;-51
2023/10/19 13:18:35;;;;;;;12.18;7.35;;;26.30;98.00;;;;;;4999394;28;20079;-52
2023/10/19 13:21:04;;;;;;;12.45;6.90;;;26.60;98.30;;;;;;5050212;28;20062;-52
2023/10/19 13:23:34;;;;;;;8.30;5.65;;;26.60;98.10;;;;;;5048643;28;20512;-52
2023/10/19 13:26:17;;;;;;;11.02;6.43;;;26.20;99.90;;;;;;5048809;28;20056;-52
2023/10/19 13:28:43;;;;;;;11.80;6.53;;;26.00;98.40;;;;;;5048150;28;20036;-51
2023/10/19 13:31:09;;;;;;;7.90;6.22;;;25.90;98.60;;;;;;5014785;28;20130;-51
2023/10/19 13:33:36;;;;;;;15.07;6.28;;;26.00;98.50;;;;;;5045970;28;20048;-51